Time;durP1;ratioP1;P1;durP2;ratioP2;P2;SDS_P1;SDS_P2;PMS_P1;PMS_P2;Temp;Humidity;BMP_temperature;BMP_pressure;BME280_temperature;BME280_humidity;BME280_pressure;Samples;Min_cycle;Max_cycle;Signal;HPM_P1;HPM_P2
2023/12/15 00:01:00;;;;;;;12.35;6.90;;;;;;;6.70;100.00;102589.59;4789894;29;20050;-68
2023/12/15 00:03:48;;;;;;;12.90;6.60;;;;;;;6.71;100.00;102598.53;4805697;29;20130;-67
2023/12/15 00:06:36;;;;;;;13.45;7.18;;;;;;;6.70;100.00;102611.25;4805988;29;20051;-66
2023/12/15 00:09:25;;;;;;;14.50;7.10;;;;;;;6.70;100.00;102618.56;4791672;29;20053;-66
2023/12/15 00:12:14;;;;;;;14.18;7.47;;;;;;;6.70;100.00;102627.50;4800366;29;20066;-67
2023/12/15 00:15:03;;;;;;;14.93;7.47;;;;;;;6.72;100.00;102630.03;4791657;29;20412;-65
2023/12/15 00:17:51;;;;;;;13.77;7.25;;;;;;;6.73;100.00;102632.53;4779633;29;20055;-66
2023/12/15 00:20:40;;;;;;;11.63;7.28;;;;;;;6.74;100.00;102645.06;4785467;29;20082;-66
2023/12/15 00:23:28;;;;;;;13.82;7.38;;;;;;;6.74;100.00;102647.75;4810694;29;20050;-66
2023/12/15 00:26:16;;;;;;;12.85;8.40;;;;;;;6.75;100.00;102646.72;4823026;29;20058;-66
2023/12/15 00:29:04;;;;;;;14.75;7.78;;;;;;;6.75;100.00;102648.59;4809485;29;20122;-66
2023/12/15 00:31:52;;;;;;;13.93;7.93;;;;;;;6.74;100.00;102642.34;4785781;29;20516;-66
2023/12/15 00:34:40;;;;;;;14.57;7.13;;;;;;;6.74;100.00;102639.63;4807678;29;20141;-66
2023/12/15 00:37:28;;;;;;;13.27;7.90;;;;;;;6.74;100.00;102646.94;4805424;29;20065;-67
2023/12/15 00:40:16;;;;;;;14.13;7.90;;;;;;;6.74;100.00;102641.50;4805034;29;20424;-66
2023/12/15 00:43:05;;;;;;;12.48;7.97;;;;;;;6.75;100.00;102641.28;4804529;29;20108;-66
2023/12/15 00:45:53;;;;;;;13.25;8.63;;;;;;;6.76;100.00;102647.56;4779787;29;20050;-66
2023/12/15 00:48:41;;;;;;;19.15;9.55;;;;;;;6.75;100.00;102648.59;4802816;29;20062;-66
2023/12/15 00:51:29;;;;;;;13.95;7.85;;;;;;;6.75;100.00;102651.28;4790657;29;20062;-67
2023/12/15 00:54:17;;;;;;;14.02;8.55;;;;;;;6.73;100.00;102648.78;4786698;30;20059;-66
2023/12/15 00:57:05;;;;;;;15.80;8.15;;;;;;;6.73;100.00;102643.34;4805454;29;20088;-67
2023/12/15 00:59:54;;;;;;;17.40;9.23;;;;;;;6.74;100.00;102658.59;4791845;29;20061;-66
2023/12/15 01:02:42;;;;;;;14.60;9.07;;;;;;;6.74;100.00;102655.88;4802647;29;20050;-67
2023/12/15 01:05:30;;;;;;;19.83;9.88;;;;;;;6.74;100.00;102657.75;4801816;29;20526;-66
2023/12/15 01:08:19;;;;;;;16.27;8.73;;;;;;;6.74;100.00;102655.88;4778856;29;20055;-66
2023/12/15 01:11:08;;;;;;;16.20;10.07;;;;;;;6.75;100.00;102665.69;4804224;29;20053;-66
2023/12/15 01:13:56;;;;;;;18.15;9.68;;;;;;;6.76;100.00;102672.78;4803744;29;20437;-66
2023/12/15 01:16:45;;;;;;;18.52;10.25;;;;;;;6.77;100.00;102670.91;4787704;29;20047;-66
2023/12/15 01:19:33;;;;;;;18.60;9.15;;;;;;;6.77;100.00;102670.91;4774602;29;20074;-66
2023/12/15 01:22:21;;;;;;;16.00;9.55;;;;;;;6.79;100.00;102680.50;4786749;30;20051;-67
2023/12/15 01:25:10;;;;;;;18.10;10.32;;;;;;;6.79;100.00;102680.50;4802483;29;20508;-66
2023/12/15 01:27:58;;;;;;;15.88;10.13;;;;;;;6.78;100.00;102689.69;4792724;29;20172;-65
2023/12/15 01:30:47;;;;;;;17.92;11.05;;;;;;;6.79;100.00;102685.09;4802918;29;20054;-66
2023/12/15 01:33:35;;;;;;;17.58;11.13;;;;;;;6.81;100.00;102688.44;4790826;29;20062;-66
2023/12/15 01:36:23;;;;;;;20.30;10.57;;;;;;;6.80;100.00;102687.59;4790005;29;20141;-65
2023/12/15 01:39:11;;;;;;;16.98;11.02;;;;;;;6.79;100.00;102694.06;4803343;29;20051;-67
2023/12/15 01:41:59;;;;;;;16.92;11.45;;;;;;;6.79;100.00;102690.50;4804541;29;20101;-67
2023/12/15 01:44:47;;;;;;;19.38;12.30;;;;;;;6.78;100.00;102695.09;4802467;29;20055;-67
2023/12/15 01:47:35;;;;;;;17.77;11.10;;;;;;;6.79;100.00;102701.34;4790972;29;20054;-67
2023/12/15 01:50:24;;;;;;;18.23;11.88;;;;;;;6.80;100.00;102703.03;4790600;29;20051;-66
2023/12/15 01:53:12;;;;;;;20.00;11.85;;;;;;;6.81;100.00;102710.97;4791563;29;20088;-65
2023/12/15 01:56:00;;;;;;;19.55;12.25;;;;;;;6.79;100.00;102710.31;4805334;29;20055;-66
2023/12/15 01:58:48;;;;;;;19.63;11.48;;;;;;;6.79;100.00;102713.03;4805115;29;20070;-66
2023/12/15 02:01:36;;;;;;;19.60;11.20;;;;;;;6.79;100.00;102713.03;4793400;29;20066;-66
2023/12/15 02:04:24;;;;;;;17.95;12.10;;;;;;;6.80;100.00;102714.69;4806405;29;20051;-67
2023/12/15 02:07:12;;;;;;;22.67;13.75;;;;;;;6.79;100.00;102717.63;4807254;29;20173;-67
2023/12/15 02:10:00;;;;;;;20.63;12.30;;;;;;;6.80;100.00;102717.41;4794755;29;20175;-66
2023/12/15 02:12:49;;;;;;;18.33;12.45;;;;;;;6.81;100.00;102719.09;4808826;29;20073;-65
2023/12/15 02:15:36;;;;;;;18.15;13.00;;;;;;;6.81;100.00;102710.97;4794007;29;20051;-67
2023/12/15 02:18:24;;;;;;;18.23;11.73;;;;;;;6.81;100.00;102713.66;4795531;29;20062;-62
2023/12/15 02:21:13;;;;;;;19.42;12.68;;;;;;;6.78;100.00;102708.66;4808423;29;20084;-63
2023/12/15 02:24:00;;;;;;;19.42;12.48;;;;;;;6.79;100.00;102714.91;4804581;29;20518;-66
2023/12/15 02:26:48;;;;;;;21.27;12.07;;;;;;;6.80;100.00;102725.53;4807310;29;20197;-67
2023/12/15 02:29:36;;;;;;;19.88;12.68;;;;;;;6.82;100.00;102738.88;4814122;29;20054;-64
2023/12/15 02:32:24;;;;;;;19.00;12.82;;;;;;;6.85;100.00;102740.38;4819509;29;20069;-63
2023/12/15 02:35:14;;;;;;;21.77;13.13;;;;;;;6.83;100.00;102748.69;4815599;29;20111;-64
2023/12/15 02:38:07;;;;;;;17.42;12.45;;;;;;;6.86;100.00;102744.78;4798766;30;20043;-66
2023/12/15 02:40:55;;;;;;;22.15;13.02;;;;;;;6.85;100.00;102752.03;4792150;30;20054;-66
2023/12/15 02:43:43;;;;;;;21.27;13.43;;;;;;;6.86;100.00;102755.59;4795021;29;20473;-66
2023/12/15 02:46:35;;;;;;;21.25;14.30;;;;;;;6.87;100.00;102763.53;4806030;29;20080;-67
2023/12/15 02:49:23;;;;;;;18.98;13.07;;;;;;;6.89;100.00;102772.28;4806940;29;20479;-66
2023/12/15 02:52:11;;;;;;;23.13;13.98;;;;;;;6.89;100.00;102768.75;4806903;29;20097;-65
2023/12/15 02:54:59;;;;;;;23.80;14.40;;;;;;;6.90;100.00;102765.00;4814676;29;20074;-66
2023/12/15 02:57:47;;;;;;;20.25;13.55;;;;;;;6.91;100.00;102774.81;4806359;29;20079;-65
2023/12/15 03:00:35;;;;;;;25.23;15.55;;;;;;;6.90;100.00;102773.97;4805684;29;20051;-65
2023/12/15 03:03:23;;;;;;;21.73;14.70;;;;;;;6.91;100.00;102783.78;4807084;29;20070;-66
2023/12/15 03:06:11;;;;;;;20.83;14.13;;;;;;;6.91;100.00;102791.06;4807253;29;20061;-66
2023/12/15 03:08:59;;;;;;;20.42;13.52;;;;;;;6.91;100.00;102785.66;4795169;29;20150;-65
2023/12/15 03:11:47;;;;;;;21.60;14.68;;;;;;;6.92;100.00;102782.72;4805334;29;20737;-67
2023/12/15 03:14:35;;;;;;;21.23;14.77;;;;;;;6.92;100.00;102787.31;4792520;29;20062;-66
2023/12/15 03:17:23;;;;;;;24.85;14.77;;;;;;;6.93;100.00;102780.88;4792854;29;20061;-66
2023/12/15 03:20:11;;;;;;;22.42;16.10;;;;;;;6.91;100.00;102786.50;4806343;29;20611;-66
2023/12/15 03:23:01;;;;;;;24.65;15.48;;;;;;;6.92;100.00;102803.59;4805656;29;20055;-65
2023/12/15 03:25:49;;;;;;;27.80;16.20;;;;;;;6.93;100.00;102802.56;4804937;29;20051;-66
2023/12/15 03:28:39;;;;;;;23.10;16.60;;;;;;;6.92;100.00;102801.69;4794224;29;20061;-66
2023/12/15 03:31:27;;;;;;;23.60;16.80;;;;;;;6.93;100.00;102816.94;4794801;29;20103;-66
2023/12/15 03:34:16;;;;;;;26.10;16.25;;;;;;;6.94;100.00;102821.31;4788629;30;20131;-64
2023/12/15 03:37:04;;;;;;;23.92;16.73;;;;;;;6.94;100.00;102823.19;4797651;29;20057;-66
2023/12/15 03:39:52;;;;;;;28.02;18.30;;;;;;;6.94;100.00;102825.91;4805774;29;20133;-66
2023/12/15 03:42:40;;;;;;;27.58;17.33;;;;;;;6.95;100.00;102831.16;4800255;29;20070;-66
2023/12/15 03:45:28;;;;;;;27.17;18.02;;;;;;;6.97;100.00;102833.63;4806438;29;20051;-66
2023/12/15 03:48:16;;;;;;;24.25;17.83;;;;;;;6.96;100.00;102842.81;4805213;29;20055;-67
2023/12/15 03:51:04;;;;;;;25.98;18.17;;;;;;;6.96;100.00;102838.22;4791599;29;20102;-66
2023/12/15 03:53:52;;;;;;;27.35;18.45;;;;;;;6.98;100.00;102843.47;4788444;30;20192;-66
2023/12/15 03:56:40;;;;;;;27.67;18.27;;;;;;;6.98;100.00;102835.34;4775120;30;20120;-67
2023/12/15 03:59:28;;;;;;;28.10;18.88;;;;;;;6.99;100.00;102842.41;4793064;29;20115;-67
2023/12/15 04:02:16;;;;;;;27.25;19.13;;;;;;;6.96;100.00;102845.53;4787873;30;20043;-67
2023/12/15 04:05:04;;;;;;;27.42;19.88;;;;;;;6.96;100.00;102854.50;4788233;30;20058;-67
2023/12/15 04:07:52;;;;;;;28.08;19.83;;;;;;;6.97;100.00;102847.19;4777727;29;20543;-67
2023/12/15 04:10:40;;;;;;;30.50;20.95;;;;;;;6.96;100.00;102849.06;4790963;29;20054;-66
2023/12/15 04:13:28;;;;;;;32.05;21.48;;;;;;;6.98;100.00;102851.59;4796477;29;20412;-66
2023/12/15 04:16:16;;;;;;;26.50;19.30;;;;;;;6.99;100.00;102851.38;4804915;29;20082;-67
2023/12/15 04:19:04;;;;;;;29.90;20.08;;;;;;;7.00;100.00;102857.66;4804546;29;20211;-67
2023/12/15 04:21:52;;;;;;;28.67;19.90;;;;;;;7.00;100.00;102854.97;4804181;29;20061;-66
2023/12/15 04:24:41;;;;;;;25.90;20.15;;;;;;;7.01;100.00;102876.44;4804568;29;20051;-66
2023/12/15 04:27:30;;;;;;;29.33;20.63;;;;;;;7.00;100.00;102880.19;4803755;29;20141;-64
2023/12/15 04:30:18;;;;;;;29.45;21.35;;;;;;;7.00;100.00;102866.63;4805230;29;20492;-67
2023/12/15 04:33:06;;;;;;;31.55;21.17;;;;;;;7.02;100.00;102863.72;4804295;29;20054;-66
2023/12/15 04:35:54;;;;;;;29.70;20.58;;;;;;;7.01;100.00;102868.28;4805673;29;20061;-67
2023/12/15 04:38:42;;;;;;;28.73;20.55;;;;;;;7.04;100.00;102886.03;4806169;29;20126;-66
2023/12/15 04:41:30;;;;;;;29.92;21.35;;;;;;;7.05;100.00;102890.44;4804299;29;20062;-66
2023/12/15 04:44:18;;;;;;;28.95;20.13;;;;;;;7.05;100.00;102885.03;4804477;29;20526;-65
2023/12/15 04:47:06;;;;;;;29.38;19.52;;;;;;;7.06;100.00;102885.84;4805439;29;20085;-67
2023/12/15 04:49:54;;;;;;;31.45;19.92;;;;;;;7.07;100.00;102892.94;4804454;29;20058;-66
2023/12/15 04:52:42;;;;;;;32.03;20.42;;;;;;;7.06;100.00;102897.53;4804465;29;20059;-66
2023/12/15 04:55:30;;;;;;;30.83;20.60;;;;;;;7.06;100.00;102897.53;4805178;29;20118;-66
2023/12/15 04:58:18;;;;;;;29.98;21.50;;;;;;;7.06;100.00;102894.81;4805821;29;20055;-66
2023/12/15 05:01:10;;;;;;;34.80;22.08;;;;;;;7.08;100.00;102906.31;4803731;29;20043;-67
2023/12/15 05:03:58;;;;;;;34.65;23.80;;;;;;;7.07;100.00;102896.53;4803488;29;20051;-67
2023/12/15 05:06:46;;;;;;;40.28;26.45;;;;;;;7.07;100.00;102903.78;4803624;29;20051;-66
2023/12/15 05:09:34;;;;;;;35.42;25.45;;;;;;;7.03;100.00;102908.78;4803304;29;20111;-66
2023/12/15 05:12:24;;;;;;;38.90;25.73;;;;;;;7.02;100.00;102902.50;4801682;29;20508;-66
2023/12/15 05:15:12;;;;;;;39.63;26.02;;;;;;;7.01;100.00;102905.41;4804002;29;20203;-65
2023/12/15 05:17:59;;;;;;;36.25;24.08;;;;;;;7.02;100.00;102912.50;4804996;29;20412;-66
2023/12/15 05:20:48;;;;;;;36.00;23.38;;;;;;;7.03;100.00;102914.19;4790849;29;20051;-66
2023/12/15 05:23:36;;;;;;;36.85;24.50;;;;;;;7.05;100.00;102920.25;4791372;29;20061;-66
2023/12/15 05:26:24;;;;;;;38.53;24.60;;;;;;;7.06;100.00;102924.63;4790361;29;20047;-67
2023/12/15 05:29:12;;;;;;;38.05;24.90;;;;;;;7.06;100.00;102927.34;4804183;29;20516;-67
2023/12/15 05:32:00;;;;;;;38.47;23.48;;;;;;;7.07;100.00;102942.59;4804361;29;20500;-66
2023/12/15 05:34:49;;;;;;;33.00;20.60;;;;;;;7.08;100.00;102943.44;4792589;29;20058;-66
2023/12/15 05:37:37;;;;;;;42.67;25.60;;;;;;;7.07;100.00;102953.44;4808894;29;20199;-67
2023/12/15 05:40:25;;;;;;;39.42;24.35;;;;;;;7.07;100.00;102948.03;4788746;29;20394;-67
2023/12/15 05:43:13;;;;;;;36.83;22.48;;;;;;;7.09;100.00;102956.78;4809102;29;20058;-66
2023/12/15 05:46:02;;;;;;;32.95;22.05;;;;;;;7.10;100.00;102966.59;4794552;29;20061;-66
2023/12/15 05:48:50;;;;;;;39.75;24.52;;;;;;;7.12;100.00;102966.38;4808383;29;20054;-66
2023/12/15 05:51:38;;;;;;;37.33;23.90;;;;;;;7.12;100.00;102967.25;4808223;29;20043;-66
2023/12/15 05:54:26;;;;;;;38.42;24.60;;;;;;;7.11;100.00;102968.28;4793705;29;20047;-67
2023/12/15 05:57:14;;;;;;;36.75;24.73;;;;;;;7.12;100.00;102959.13;4793784;29;20549;-67
2023/12/15 06:00:03;;;;;;;39.65;25.05;;;;;;;7.12;100.00;102953.69;4805855;29;20042;-66
2023/12/15 06:02:51;;;;;;;31.98;21.08;;;;;;;7.14;100.00;102959.75;4805851;29;20054;-66
2023/12/15 06:05:40;;;;;;;38.90;24.70;;;;;;;7.15;100.00;102955.19;4804706;29;20130;-66
2023/12/15 06:08:28;;;;;;;34.13;21.80;;;;;;;7.17;100.00;102950.41;4792889;29;20421;-67
2023/12/15 06:11:17;;;;;;;39.55;23.35;;;;;;;7.16;100.00;102946.84;4806295;29;20043;-66
2023/12/15 06:14:05;;;;;;;39.47;24.15;;;;;;;7.17;100.00;102953.97;4795969;29;20063;-66
2023/12/15 06:16:53;;;;;;;33.03;22.80;;;;;;;7.17;100.00;102967.50;4794913;29;20054;-67
2023/12/15 06:19:41;;;;;;;42.35;24.20;;;;;;;7.17;100.00;102959.38;4805844;29;20431;-67
2023/12/15 06:22:29;;;;;;;41.00;24.17;;;;;;;7.18;100.00;102955.63;4807373;29;20051;-67
2023/12/15 06:25:17;;;;;;;42.42;24.75;;;;;;;7.18;100.00;102977.31;4807459;29;20050;-65
2023/12/15 06:28:08;;;;;;;37.47;24.20;;;;;;;7.17;100.00;102981.06;4807076;29;20188;-66
2023/12/15 06:30:56;;;;;;;42.42;26.30;;;;;;;7.18;100.00;102979.19;4806693;29;20054;-66
2023/12/15 06:33:45;;;;;;;35.92;24.55;;;;;;;7.18;100.00;102993.56;4808766;29;20107;-65
2023/12/15 06:36:33;;;;;;;37.85;24.58;;;;;;;7.20;100.00;102994.22;4808221;29;20053;-65
2023/12/15 06:39:21;;;;;;;42.08;26.38;;;;;;;7.21;100.00;102998.59;4808652;29;20059;-67
2023/12/15 06:42:09;;;;;;;38.50;25.52;;;;;;;7.21;100.00;103004.03;4818789;29;20072;-65
2023/12/15 06:45:00;;;;;;;42.33;25.10;;;;;;;7.21;100.00;103003.19;4806724;29;20465;-66
2023/12/15 06:47:48;;;;;;;38.72;24.35;;;;;;;7.21;100.00;103004.03;4813341;29;20047;-67
2023/12/15 06:50:36;;;;;;;41.47;24.73;;;;;;;7.21;100.00;103003.19;4826619;29;20054;-68
2023/12/15 06:53:24;;;;;;;37.90;24.23;;;;;;;7.22;100.00;103002.19;4816149;29;20096;-66
2023/12/15 06:56:12;;;;;;;43.92;25.67;;;;;;;7.23;100.00;103001.97;4142182;29;10000754;-68
2023/12/15 06:59:00;;;;;;;40.47;24.80;;;;;;;7.23;100.00;103004.69;4802435;29;20047;-66
2023/12/15 07:01:48;;;;;;;39.20;25.27;;;;;;;7.23;100.00;103011.97;4802694;29;20088;-68
2023/12/15 07:04:36;;;;;;;40.35;24.60;;;;;;;7.25;100.00;103021.59;4802490;29;20440;-68
2023/12/15 07:07:24;;;;;;;42.72;26.38;;;;;;;7.25;100.00;103035.16;4802589;29;20047;-67
2023/12/15 07:10:12;;;;;;;40.03;27.30;;;;;;;7.27;100.00;103034.97;4803404;29;20051;-68
2023/12/15 07:13:00;;;;;;;44.28;26.23;;;;;;;7.27;100.00;103043.13;4800002;29;20115;-67
2023/12/15 07:15:48;;;;;;;42.83;25.45;;;;;;;7.27;100.00;103043.13;4803048;29;20043;-67
2023/12/15 07:18:36;;;;;;;40.80;24.20;;;;;;;7.29;100.00;103040.19;4803333;29;20530;-67
2023/12/15 07:21:24;;;;;;;40.85;24.58;;;;;;;7.30;100.00;103039.19;4800345;29;20043;-66
2023/12/15 07:24:12;;;;;;;45.35;28.13;;;;;;;7.30;100.00;103053.56;4800370;29;20564;-66
2023/12/15 07:27:00;;;;;;;39.17;25.13;;;;;;;7.31;100.00;103062.53;4801381;29;20051;-67
2023/12/15 07:29:48;;;;;;;39.40;25.45;;;;;;;7.32;100.00;103064.25;4801555;29;20070;-67
2023/12/15 07:32:37;;;;;;;43.53;25.83;;;;;;;7.33;100.00;103060.47;4801550;29;20529;-66
2023/12/15 07:35:25;;;;;;;40.92;25.77;;;;;;;7.33;100.00;103057.78;4801821;29;20058;-67
2023/12/15 07:38:20;;;;;;;44.20;25.17;;;;;;;7.34;100.00;103068.44;4804294;29;20499;-66
2023/12/15 07:41:08;;;;;;;39.88;24.75;;;;;;;7.34;100.00;103079.28;4814801;29;20594;-66
2023/12/15 07:43:56;;;;;;;40.35;24.60;;;;;;;7.34;100.00;103078.47;4801067;29;20058;-67
2023/12/15 07:46:44;;;;;;;41.50;26.73;;;;;;;7.35;100.00;103085.53;4801932;29;20515;-67
2023/12/15 07:49:34;;;;;;;43.13;25.67;;;;;;;7.35;100.00;103071.97;4800974;29;20055;-67
2023/12/15 07:52:22;;;;;;;34.88;23.65;;;;;;;7.36;100.00;103087.22;4802397;29;20051;-66
2023/12/15 07:55:10;;;;;;;38.35;25.15;;;;;;;7.36;100.00;103093.50;4800828;29;20057;-67
2023/12/15 07:57:58;;;;;;;43.35;27.15;;;;;;;7.36;100.00;103092.63;4793668;29;20489;-66
2023/12/15 08:00:46;;;;;;;36.60;24.67;;;;;;;7.36;100.00;103104.34;4800649;29;20108;-66
2023/12/15 08:03:34;;;;;;;43.75;27.30;;;;;;;7.36;100.00;103098.94;4788191;29;20050;-67
2023/12/15 08:06:22;;;;;;;42.10;26.98;;;;;;;7.35;100.00;103109.94;4792227;29;20452;-67
2023/12/15 08:09:10;;;;;;;41.75;27.73;;;;;;;7.37;100.00;103099.75;4816854;29;20046;-67
2023/12/15 08:11:58;;;;;;;46.40;28.02;;;;;;;7.36;100.00;103103.47;4806199;29;20187;-67
2023/12/15 08:14:46;;;;;;;42.78;26.02;;;;;;;7.35;100.00;103104.53;4805288;29;20111;-66
2023/12/15 08:17:34;;;;;;;38.92;25.63;;;;;;;7.36;100.00;103120.63;4780756;29;20516;-67
2023/12/15 08:20:24;;;;;;;43.92;26.23;;;;;;;7.38;100.00;103131.25;4774945;30;20078;-66
2023/12/15 08:23:12;;;;;;;42.13;26.05;;;;;;;7.38;100.00;103142.94;4786314;30;20043;-67
2023/12/15 08:26:00;;;;;;;46.33;26.42;;;;;;;7.39;100.00;103146.53;4774788;30;20090;-66
2023/12/15 08:28:48;;;;;;;40.83;25.90;;;;;;;7.40;100.00;103142.75;4768540;29;20054;-68
2023/12/15 08:31:37;;;;;;;38.80;24.63;;;;;;;7.41;100.00;103145.31;4777893;29;20435;-68
2023/12/15 08:34:26;;;;;;;38.63;25.85;;;;;;;7.42;100.00;103155.09;4801665;29;20409;-67
2023/12/15 08:37:14;;;;;;;38.28;24.58;;;;;;;7.44;100.00;103157.63;4791929;29;20137;-66
2023/12/15 08:40:03;;;;;;;44.58;25.88;;;;;;;7.44;100.00;103161.19;4797458;29;20049;-68
2023/12/15 08:42:51;;;;;;;45.70;27.15;;;;;;;7.44;100.00;103172.03;4804381;29;20135;-68
2023/12/15 08:45:39;;;;;;;40.40;25.77;;;;;;;7.44;100.00;103172.03;4805552;29;20046;-67
2023/12/15 08:48:27;;;;;;;37.53;23.92;;;;;;;7.46;100.00;103180.00;4804122;29;20522;-66
2023/12/15 08:51:16;;;;;;;41.05;23.85;;;;;;;7.47;100.00;103181.66;4779136;29;20110;-67
2023/12/15 08:54:04;;;;;;;40.28;24.90;;;;;;;7.47;100.00;103182.50;4805623;29;20062;-67
2023/12/15 08:56:52;;;;;;;40.63;24.35;;;;;;;7.47;100.00;103189.81;4790058;29;20187;-68
2023/12/15 08:59:40;;;;;;;34.88;22.67;;;;;;;7.47;100.00;103181.66;4802839;29;20065;-68
2023/12/15 09:02:28;;;;;;;37.67;23.08;;;;;;;7.51;100.00;103193.00;4799168;29;20138;-68
2023/12/15 09:05:19;;;;;;;36.67;23.23;;;;;;;7.51;100.00;103199.25;4804998;29;20143;-66
2023/12/15 09:08:11;;;;;;;39.05;23.90;;;;;;;7.52;100.00;103195.50;4805401;29;20059;-67
2023/12/15 09:10:59;;;;;;;35.75;22.15;;;;;;;7.52;100.00;103189.22;4794607;29;20054;-67
2023/12/15 09:13:47;;;;;;;36.58;22.88;;;;;;;7.54;100.00;103196.16;4802349;29;20058;-66
2023/12/15 09:16:35;;;;;;;34.08;22.85;;;;;;;7.56;100.00;103201.41;4807565;29;20139;-68
2023/12/15 09:19:25;;;;;;;36.08;22.70;;;;;;;7.56;100.00;103202.25;4808203;29;20050;-67
2023/12/15 09:22:13;;;;;;;36.10;22.80;;;;;;;7.58;100.00;103215.63;4802719;29;20088;-67
2023/12/15 09:25:01;;;;;;;35.42;22.45;;;;;;;7.62;100.00;103223.16;4808705;29;20607;-67
2023/12/15 09:27:49;;;;;;;35.53;23.08;;;;;;;7.63;100.00;103230.28;4808627;29;20055;-66
2023/12/15 09:30:37;;;;;;;39.80;21.98;;;;;;;7.62;100.00;103228.59;4793974;29;20065;-67
2023/12/15 09:33:25;;;;;;;36.35;21.40;;;;;;;7.62;100.00;103234.03;4804105;29;20077;-66
2023/12/15 09:36:13;;;;;;;33.92;21.05;;;;;;;7.63;100.00;103243.88;4807021;29;20086;-67
2023/12/15 09:39:03;;;;;;;39.78;21.15;;;;;;;7.67;100.00;103252.44;4791194;29;20463;-67
2023/12/15 09:41:51;;;;;;;34.60;22.13;;;;;;;7.67;100.00;103264.16;4819248;29;20204;-67
2023/12/15 09:44:39;;;;;;;35.53;21.90;;;;;;;7.71;100.00;103266.50;4793239;29;20088;-67
2023/12/15 09:47:48;;;;;;;36.00;22.77;;;;;;;7.70;100.00;103273.81;4802385;29;20047;-66
2023/12/15 09:50:40;;;;;;;37.80;23.27;;;;;;;7.70;100.00;103279.22;4806616;29;20055;-66
2023/12/15 09:53:38;;;;;;;36.22;23.17;;;;;;;7.72;100.00;103281.75;4806782;29;20509;-67
2023/12/15 09:56:26;;;;;;;41.83;24.17;;;;;;;7.72;100.00;103300.72;4807153;29;20063;-66
2023/12/15 09:59:14;;;;;;;38.40;23.77;;;;;;;7.72;100.00;103298.00;4807062;29;20061;-67
2023/12/15 10:02:02;;;;;;;38.10;22.38;;;;;;;7.72;100.00;103295.31;4791578;29;20063;-67
2023/12/15 10:04:50;;;;;;;37.00;23.15;;;;;;;7.72;100.00;103298.00;4805913;29;20043;-67
2023/12/15 10:07:38;;;;;;;40.42;22.83;;;;;;;7.74;100.00;103298.69;4806076;29;20054;-67
2023/12/15 10:10:26;;;;;;;41.38;24.38;;;;;;;7.75;100.00;103300.38;4807416;29;20512;-66
2023/12/15 10:13:15;;;;;;;37.80;22.67;;;;;;;7.75;100.00;103308.53;4801258;29;20075;-66
2023/12/15 10:16:03;;;;;;;36.35;22.52;;;;;;;7.76;100.00;103316.44;4803593;29;20051;-68
2023/12/15 10:18:51;;;;;;;41.17;23.15;;;;;;;7.77;100.00;103322.72;4794079;29;20068;-65
2023/12/15 10:21:39;;;;;;;39.92;23.10;;;;;;;7.76;100.00;103321.88;4781351;29;20051;-66
2023/12/15 10:24:28;;;;;;;42.70;22.83;;;;;;;7.77;100.00;103331.72;4794323;29;20196;-66
2023/12/15 10:27:16;;;;;;;37.28;22.05;;;;;;;7.78;100.00;103325.25;4790095;30;20519;-67
2023/12/15 10:30:04;;;;;;;33.42;21.55;;;;;;;7.80;100.00;103325.91;4789266;30;20078;-66
2023/12/15 10:32:57;;;;;;;38.42;23.20;;;;;;;7.82;100.00;103333.88;4788341;30;20149;-67
2023/12/15 10:35:50;;;;;;;47.72;22.83;;;;;;;7.83;100.00;103338.25;4786175;29;20063;-66
2023/12/15 10:38:38;;;;;;;40.17;22.42;;;;;;;7.82;100.00;103348.28;4794080;29;20054;-67
2023/12/15 10:41:31;;;;;;;37.22;21.70;;;;;;;7.84;100.00;103361.66;4780970;29;20051;-65
2023/12/15 10:44:21;;;;;;;34.60;21.33;;;;;;;7.84;100.00;103361.66;4805349;29;20060;-67
2023/12/15 10:47:11;;;;;;;35.90;22.08;;;;;;;7.85;100.00;103357.94;4791880;29;20043;-66
2023/12/15 10:49:59;;;;;;;37.00;21.58;;;;;;;7.85;100.00;103366.91;4807659;29;20055;-66
2023/12/15 10:52:49;;;;;;;35.45;20.98;;;;;;;7.87;100.00;103380.28;4806495;29;20508;-66
2023/12/15 10:55:39;;;;;;;36.53;21.02;;;;;;;7.87;100.00;103374.88;4806971;29;20086;-66
2023/12/15 10:58:27;;;;;;;34.60;19.75;;;;;;;7.88;100.00;103368.41;4793122;29;20051;-65
2023/12/15 11:01:16;;;;;;;34.65;19.40;;;;;;;7.88;100.00;103380.09;4799832;29;20062;-66
2023/12/15 11:04:20;;;;;;;25.35;14.20;;;;;;;8.02;100.00;103389.28;4820273;29;20113;-66
2023/12/15 11:07:11;;;;;;;32.53;18.67;;;;;;;8.16;100.00;103392.19;4795567;29;20585;-66
2023/12/15 11:09:59;;;;;;;32.92;19.75;;;;;;;8.10;100.00;103391.03;4797528;29;20043;-65
2023/12/15 11:12:52;;;;;;;32.97;19.98;;;;;;;8.01;100.00;103389.44;4794539;29;20369;-62
2023/12/15 11:15:41;;;;;;;38.20;19.88;;;;;;;7.96;100.00;103387.31;4820341;29;20055;-65
2023/12/15 11:18:29;;;;;;;35.88;20.55;;;;;;;7.94;100.00;103388.50;4809549;29;20135;-66
2023/12/15 11:21:19;;;;;;;31.35;18.33;;;;;;;7.95;100.00;103404.63;4806204;29;20046;-66
2023/12/15 11:24:07;;;;;;;28.92;17.38;;;;;;;7.96;100.00;103397.31;4780609;29;20399;-67
2023/12/15 11:26:55;;;;;;;33.13;18.02;;;;;;;7.96;100.00;103411.75;4799709;29;20408;-69
2023/12/15 11:29:43;;;;;;;36.35;19.25;;;;;;;7.95;100.00;103407.34;4811141;29;20126;-67
2023/12/15 11:32:35;;;;;;;34.13;17.65;;;;;;;7.93;100.00;103405.84;4792788;29;20038;-67
2023/12/15 11:35:29;;;;;;;27.13;15.38;;;;;;;7.91;100.00;103400.59;4773844;29;20051;-64
2023/12/15 11:38:19;;;;;;;28.15;14.18;;;;;;;7.93;100.00;103397.69;4791619;29;20519;-67
2023/12/15 11:41:08;;;;;;;31.75;15.38;;;;;;;7.95;100.00;103393.78;4806402;29;20042;-67
2023/12/15 11:43:56;;;;;;;28.88;14.45;;;;;;;7.98;100.00;103390.66;4783758;29;20564;-66
2023/12/15 11:46:45;;;;;;;26.88;15.13;;;;;;;8.00;100.00;103382.34;4779705;29;20051;-67
2023/12/15 11:49:33;;;;;;;28.95;14.15;;;;;;;8.00;100.00;103375.03;4792642;29;20082;-67
2023/12/15 11:52:21;;;;;;;26.25;13.10;;;;;;;8.01;100.00;103376.75;4793143;29;20045;-69
2023/12/15 11:55:10;;;;;;;30.23;12.87;;;;;;;8.01;100.00;103379.47;4137831;29;10000827;-67
2023/12/15 11:57:58;;;;;;;29.35;13.43;;;;;;;8.03;100.00;103379.25;4791807;29;20285;-68
2023/12/15 12:00:47;;;;;;;23.30;12.10;;;;;;;8.03;100.00;103371.09;4801190;29;20570;-68
2023/12/15 12:03:36;;;;;;;24.90;12.00;;;;;;;8.04;100.00;103372.81;4787614;29;20053;-68
2023/12/15 12:06:24;;;;;;;27.15;11.98;;;;;;;8.07;100.00;103364.28;4788779;29;20111;-68
2023/12/15 12:09:12;;;;;;;25.33;12.07;;;;;;;8.07;100.00;103362.41;4801976;29;20492;-67
2023/12/15 12:12:00;;;;;;;26.10;12.48;;;;;;;8.08;100.00;103368.66;4787809;29;20130;-67
2023/12/15 12:14:48;;;;;;;27.25;12.50;;;;;;;8.10;100.00;103362.03;4798793;29;20082;-67
2023/12/15 12:17:39;;;;;;;25.70;11.45;;;;;;;8.14;100.00;103350.78;4771380;30;20137;-68
2023/12/15 12:20:28;;;;;;;25.38;11.88;;;;;;;8.15;100.00;103357.91;4798518;29;20051;-67
2023/12/15 12:23:16;;;;;;;25.75;11.07;;;;;;;8.18;100.00;103362.94;4803009;29;20051;-67
2023/12/15 12:26:15;;;;;;;23.83;11.05;;;;;;;8.19;100.00;103370.91;4798389;29;20146;-68
2023/12/15 12:29:03;;;;;;;21.73;11.63;;;;;;;8.21;100.00;103379.72;4802005;29;20050;-67
2023/12/15 12:31:52;;;;;;;25.77;12.10;;;;;;;8.21;100.00;103396.00;4814206;29;20042;-67
2023/12/15 12:34:40;;;;;;;21.85;11.02;;;;;;;8.21;100.00;103397.88;4801685;29;20125;-67
2023/12/15 12:37:29;;;;;;;25.48;11.15;;;;;;;8.21;100.00;103396.00;4802533;29;20058;-67
2023/12/15 12:40:17;;;;;;;25.23;10.98;;;;;;;8.23;100.00;103390.41;4790007;29;20203;-68
2023/12/15 12:43:05;;;;;;;24.33;10.48;;;;;;;8.22;100.00;103399.56;4802496;29;20051;-68
2023/12/15 12:45:53;;;;;;;23.77;10.10;;;;;;;8.24;100.00;103398.34;4798578;29;20074;-68